Time;durP1;ratioP1;P1;durP2;ratioP2;P2;SDS_P1;SDS_P2;PMS_P1;PMS_P2;Temp;Humidity;BMP_temperature;BMP_pressure;BME280_temperature;BME280_humidity;BME280_pressure;Samples;Min_cycle;Max_cycle;Signal;HPM_P1;HPM_P2
2022/01/01 00:00:44;;;;;;;32.20;27.40;;;;;;;9.13;100.00;98970.06;2086972;28;20306;-78
2022/01/01 00:01:45;;;;;;;32.80;28.50;;;;;;;9.11;100.00;98966.88;2086726;28;20223;-77
2022/01/01 00:02:46;;;;;;;31.37;27.67;;;;;;;9.09;100.00;98968.25;2086192;28;20244;-78
2022/01/01 00:03:50;;;;;;;30.17;27.13;;;;;;;9.11;100.00;98977.53;2086161;28;20242;-78
2022/01/01 00:04:53;;;;;;;33.22;29.73;;;;;;;9.17;100.00;98970.28;2078019;28;20679;-78
2022/01/01 00:05:56;;;;;;;31.80;28.70;;;;;;;9.17;100.00;98962.28;2086026;28;20237;-78
2022/01/01 00:06:57;;;;;;;31.15;27.95;;;;;;;9.22;100.00;98973.66;2087032;28;21526;-78
2022/01/01 00:08:01;;;;;;;31.90;27.65;;;;;;;9.18;100.00;98971.84;2086531;28;20226;-78
2022/01/01 00:09:02;;;;;;;32.92;27.95;;;;;;;9.17;100.00;98975.59;2086832;28;20850;-78
2022/01/01 00:10:05;;;;;;;31.85;28.55;;;;;;;9.14;100.00;98968.19;2085890;28;20230;-78
2022/01/01 00:11:05;;;;;;;31.27;28.15;;;;;;;9.12;100.00;98971.16;2086240;28;20670;-78
2022/01/01 00:12:08;;;;;;;33.07;29.10;;;;;;;9.17;100.00;98976.38;2086931;28;20219;-78
2022/01/01 00:13:09;;;;;;;31.80;28.55;;;;;;;9.20;100.00;98973.13;2086513;28;20309;-78
2022/01/01 00:14:11;;;;;;;32.03;28.70;;;;;;;9.16;100.00;98966.03;2086972;28;20230;-78
2022/01/01 00:15:12;;;;;;;31.13;27.88;;;;;;;9.13;100.00;98961.28;2087062;28;20230;-78
2022/01/01 00:16:14;;;;;;;33.55;28.77;;;;;;;9.11;100.00;98961.56;2086367;28;20233;-77
2022/01/01 00:17:15;;;;;;;35.42;29.55;;;;;;;9.13;100.00;98969.28;2077705;28;20223;-77
2022/01/01 00:18:18;;;;;;;33.70;30.00;;;;;;;9.12;100.00;98963.16;2086293;28;20751;-77
2022/01/01 00:19:19;;;;;;;35.00;29.45;;;;;;;9.12;100.00;98965.81;2086100;28;20585;-78
2022/01/01 00:20:20;;;;;;;33.87;30.47;;;;;;;9.09;100.00;98957.59;2086287;28;20300;-78
2022/01/01 00:21:23;;;;;;;38.88;31.42;;;;;;;9.14;100.00;98966.31;2086790;28;20222;-77
2022/01/01 00:22:24;;;;;;;34.85;31.15;;;;;;;9.12;100.00;98965.81;2086579;28;20318;-77
2022/01/01 00:23:25;;;;;;;34.65;31.15;;;;;;;9.12;100.00;98965.00;2085917;28;20234;-77
2022/01/01 00:24:27;;;;;;;35.83;30.40;;;;;;;9.12;100.00;98963.16;2085876;28;20242;-77
2022/01/01 00:25:28;;;;;;;32.53;28.92;;;;;;;9.10;100.00;98969.84;2077792;28;20219;-77
2022/01/01 00:26:30;;;;;;;38.22;29.08;;;;;;;9.08;100.00;98964.81;2085663;28;20241;-78
2022/01/01 00:27:31;;;;;;;34.75;30.20;;;;;;;9.05;100.00;98968.84;2086197;28;20226;-78
2022/01/01 00:28:33;;;;;;;35.50;30.37;;;;;;;9.02;100.00;98958.75;2086092;28;20752;-78
2022/01/01 00:29:34;;;;;;;35.38;30.30;;;;;;;9.03;100.00;98967.53;2086057;28;20222;-78
2022/01/01 00:30:35;;;;;;;35.70;29.53;;;;;;;9.01;100.00;98967.81;2086135;28;20294;-77
2022/01/01 00:31:38;;;;;;;35.30;30.10;;;;;;;9.02;100.00;98971.25;2085859;28;20233;-78
2022/01/01 00:32:42;;;;;;;36.47;30.83;;;;;;;9.03;100.00;98971.00;2086482;28;20721;-78
2022/01/01 00:33:43;;;;;;;36.67;30.85;;;;;;;8.99;100.00;98969.97;2086922;28;20672;-78
2022/01/01 00:34:44;;;;;;;39.83;31.13;;;;;;;8.98;100.00;98973.72;2086902;28;20218;-78
2022/01/01 00:35:45;;;;;;;37.65;32.17;;;;;;;8.97;100.00;98972.16;2086070;28;20223;-78
2022/01/01 00:36:48;;;;;;;38.10;32.33;;;;;;;9.01;100.00;98981.13;2086269;28;20238;-78
2022/01/01 00:37:50;;;;;;;40.60;33.40;;;;;;;9.01;100.00;98983.78;2086661;28;20352;-78
2022/01/01 00:38:51;;;;;;;37.05;31.30;;;;;;;9.03;100.00;98971.00;2087398;28;20210;-78
2022/01/01 00:39:52;;;;;;;40.87;32.97;;;;;;;9.09;100.00;98976.22;2087467;28;20313;-78
2022/01/01 00:40:53;;;;;;;39.90;33.05;;;;;;;9.05;100.00;98973.38;2087140;28;20257;-78
2022/01/01 00:41:55;;;;;;;41.93;32.87;;;;;;;8.97;100.00;98974.81;2088034;28;20233;-77
2022/01/01 00:42:56;;;;;;;40.53;34.75;;;;;;;8.98;100.00;98979.03;2095385;28;20233;-79
2022/01/01 00:43:57;;;;;;;42.70;34.07;;;;;;;8.93;100.00;98971.13;2087281;28;20230;-78
2022/01/01 00:44:58;;;;;;;41.60;33.92;;;;;;;8.94;100.00;98970.03;2087640;28;20214;-78
2022/01/01 00:46:00;;;;;;;40.93;33.77;;;;;;;8.93;100.00;98971.13;2088221;28;20679;-78
2022/01/01 00:47:02;;;;;;;45.97;35.72;;;;;;;8.92;100.00;98971.41;2087405;28;20226;-77
2022/01/01 00:48:05;;;;;;;44.30;34.70;;;;;;;8.90;100.00;98977.03;2079580;28;20594;-78
2022/01/01 00:49:06;;;;;;;42.40;33.38;;;;;;;8.95;100.00;98984.94;2087647;28;20219;-78
2022/01/01 00:50:08;;;;;;;45.80;35.00;;;;;;;8.92;100.00;98974.84;2087871;28;20222;-80
2022/01/01 00:51:09;;;;;;;41.63;33.33;;;;;;;8.88;100.00;98971.19;2087261;28;20226;-77
2022/01/01 00:52:12;;;;;;;45.37;33.20;;;;;;;8.87;100.00;98977.59;2079114;28;20327;-77
2022/01/01 00:53:15;;;;;;;41.40;33.70;;;;;;;8.84;100.00;98975.50;2087472;28;20248;-77
2022/01/01 00:54:17;;;;;;;41.47;33.67;;;;;;;8.84;100.00;98975.50;2088125;28;20253;-78
2022/01/01 00:55:19;;;;;;;47.38;35.08;;;;;;;8.84;100.00;98982.69;2087395;28;20268;-78
2022/01/01 00:56:21;;;;;;;43.70;34.58;;;;;;;8.84;100.00;98990.66;2087339;28;20677;-79
2022/01/01 00:57:23;;;;;;;47.05;37.63;;;;;;;8.82;100.00;98982.19;2078761;28;20552;-78
2022/01/01 00:58:24;;;;;;;46.42;36.42;;;;;;;8.78;100.00;98989.97;2087539;28;20229;-78
2022/01/01 00:59:28;;;;;;;52.30;38.67;;;;;;;8.81;100.00;98981.41;2087551;28;20246;-78
2022/01/01 01:00:30;;;;;;;43.95;34.42;;;;;;;8.85;100.00;98987.72;2079578;28;20649;-77
2022/01/01 01:01:31;;;;;;;46.90;35.92;;;;;;;8.78;100.00;98989.97;2087284;28;20221;-78
2022/01/01 01:02:33;;;;;;;50.55;35.70;;;;;;;8.76;100.00;98994.75;2095497;28;20226;-78
2022/01/01 01:03:34;;;;;;;47.25;35.67;;;;;;;8.77;100.00;98988.34;2087322;28;20219;-78
2022/01/01 01:04:36;;;;;;;49.43;36.73;;;;;;;8.73;100.00;98982.03;2087519;28;20222;-78
2022/01/01 01:05:38;;;;;;;53.90;39.20;;;;;;;8.75;100.00;99001.94;2086918;28;20226;-78
2022/01/01 01:06:39;;;;;;;50.58;37.67;;;;;;;8.73;100.00;98998.78;2087166;28;20234;-77
2022/01/01 01:07:45;;;;;;;48.30;35.90;;;;;;;8.70;100.00;98993.25;2086916;28;20616;-77
2022/01/01 01:08:46;;;;;;;54.63;38.72;;;;;;;8.69;100.00;98994.34;2079817;28;20234;-78
2022/01/01 01:09:48;;;;;;;50.42;37.40;;;;;;;8.71;100.00;98981.53;2087461;28;20566;-78
2022/01/01 01:10:49;;;;;;;47.13;36.72;;;;;;;8.76;100.00;98984.91;2087165;28;20293;-78
2022/01/01 01:11:52;;;;;;;52.13;38.10;;;;;;;8.72;100.00;98983.13;2079090;28;20239;-78
2022/01/01 01:12:54;;;;;;;54.60;36.58;;;;;;;8.71;100.00;98994.84;2086973;28;20280;-77
2022/01/01 01:13:58;;;;;;;49.58;37.38;;;;;;;8.75;100.00;98993.19;2095539;28;20222;-78
2022/01/01 01:15:00;;;;;;;52.67;37.70;;;;;;;8.76;100.00;98989.44;2087374;28;20219;-78
2022/01/01 01:16:01;;;;;;;46.00;37.10;;;;;;;8.74;100.00;98989.72;2087147;28;20218;-77
2022/01/01 01:17:03;;;;;;;51.37;39.30;;;;;;;8.78;100.00;98996.06;2087992;28;20223;-77
2022/01/01 01:18:04;;;;;;;50.47;37.67;;;;;;;8.78;100.00;99005.91;2087464;28;20229;-78
2022/01/01 01:19:06;;;;;;;46.58;36.67;;;;;;;8.76;100.00;98992.09;2087194;28;20219;-78
2022/01/01 01:20:08;;;;;;;52.85;37.97;;;;;;;8.75;100.00;98985.97;2087359;28;20222;-77
2022/01/01 01:21:09;;;;;;;53.03;35.90;;;;;;;8.77;100.00;98989.16;2087799;28;20222;-77
2022/01/01 01:22:11;;;;;;;56.37;36.77;;;;;;;8.80;100.00;98982.47;2087738;28;20233;-78
2022/01/01 01:23:13;;;;;;;48.67;36.72;;;;;;;8.80;100.00;98995.78;2087177;28;20579;-77
2022/01/01 01:24:15;;;;;;;50.75;37.35;;;;;;;8.78;100.00;98984.66;2087193;28;20226;-77
2022/01/01 01:25:16;;;;;;;51.85;37.63;;;;;;;8.77;100.00;98986.50;2087913;28;20219;-78
2022/01/01 01:26:18;;;;;;;51.17;36.97;;;;;;;8.79;100.00;98986.22;2086893;28;20298;-78
2022/01/01 01:27:23;;;;;;;51.08;36.92;;;;;;;8.84;100.00;98991.47;2086984;28;20458;-78
2022/01/01 01:28:26;;;;;;;47.25;36.72;;;;;;;8.83;100.00;98991.75;2078482;28;20234;-77
2022/01/01 01:29:27;;;;;;;50.28;36.92;;;;;;;8.81;100.00;98994.69;2087079;28;20229;-78
2022/01/01 01:30:28;;;;;;;50.27;37.10;;;;;;;8.79;100.00;98991.53;2087708;28;20246;-78
2022/01/01 01:31:30;;;;;;;53.47;35.88;;;;;;;8.82;100.00;98988.31;2087725;28;20796;-78
2022/01/01 01:32:31;;;;;;;54.00;37.53;;;;;;;8.76;100.00;98986.78;2088015;28;20226;-78
2022/01/01 01:33:33;;;;;;;58.43;38.87;;;;;;;8.78;100.00;98989.97;2086931;28;20301;-78
2022/01/01 01:34:37;;;;;;;50.70;38.15;;;;;;;8.76;100.00;98994.75;2087134;28;20223;-77
2022/01/01 01:35:39;;;;;;;49.33;37.28;;;;;;;8.77;100.00;98999.81;2087408;28;20238;-77
2022/01/01 01:36:41;;;;;;;56.42;38.80;;;;;;;8.77;100.00;98993.66;2087832;28;20283;-77
2022/01/01 01:37:42;;;;;;;56.28;38.63;;;;;;;8.76;100.00;99008.06;2086842;28;20732;-78
2022/01/01 01:38:45;;;;;;;50.40;37.73;;;;;;;8.77;100.00;98991.84;2087168;28;20639;-78
2022/01/01 01:39:45;;;;;;;58.75;35.95;;;;;;;8.82;100.00;99017.56;2086984;28;20580;-78
2022/01/01 01:40:47;;;;;;;56.47;36.40;;;;;;;8.82;100.00;99003.47;2078463;28;20247;-78
2022/01/01 01:41:51;;;;;;;52.78;36.13;;;;;;;8.80;100.00;99017.06;2087088;28;20217;-78
2022/01/01 01:42:53;;;;;;;51.75;36.17;;;;;;;8.80;100.00;99014.41;2087254;28;20234;-77
2022/01/01 01:43:56;;;;;;;55.22;38.17;;;;;;;8.81;100.00;99020.50;2086786;28;20767;-77
2022/01/01 01:45:00;;;;;;;51.63;36.78;;;;;;;8.78;100.00;99032.53;2086977;28;20728;-77
2022/01/01 01:46:04;;;;;;;50.55;35.03;;;;;;;8.81;100.00;99031.94;2086931;28;20608;-77
2022/01/01 01:47:14;;;;;;;47.88;35.00;;;;;;;8.82;100.00;99017.56;2079161;28;20224;-77
2022/01/01 01:48:17;;;;;;;53.67;36.00;;;;;;;8.84;100.00;99039.34;2086907;28;20227;-77
2022/01/01 01:49:20;;;;;;;48.97;36.83;;;;;;;8.87;100.00;99014.06;2086907;28;20236;-77
2022/01/01 01:50:21;;;;;;;49.30;36.00;;;;;;;8.83;100.00;99021.00;2086904;28;20350;-78
2022/01/01 01:51:24;;;;;;;48.97;35.87;;;;;;;8.81;100.00;99036.47;2086468;28;20262;-77
2022/01/01 01:52:30;;;;;;;50.53;36.30;;;;;;;8.78;100.00;99027.22;2087002;28;20610;-77
2022/01/01 01:53:33;;;;;;;47.08;36.15;;;;;;;8.81;100.00;99037.25;2087632;28;20219;-77
2022/01/01 01:54:35;;;;;;;55.03;37.17;;;;;;;8.84;100.00;99041.22;2087661;28;20573;-78
2022/01/01 01:55:43;;;;;;;54.17;35.30;;;;;;;8.85;100.00;99027.63;2086907;28;20243;-77
2022/01/01 01:56:44;;;;;;;48.20;33.80;;;;;;;8.88;100.00;99032.41;2086504;28;20229;-77
2022/01/01 01:57:45;;;;;;;52.72;35.67;;;;;;;8.87;100.00;99041.47;2087571;28;20218;-77
2022/01/01 01:58:46;;;;;;;52.28;34.30;;;;;;;8.89;100.00;99055.25;2087438;28;20218;-77
2022/01/01 01:59:48;;;;;;;50.90;35.23;;;;;;;8.84;100.00;99042.00;2087113;28;20302;-77
2022/01/01 02:01:10;;;;;;;50.13;35.25;;;;;;;8.86;100.00;99065.66;2078615;28;20702;-77
2022/01/01 02:02:12;;;;;;;50.75;34.33;;;;;;;8.86;100.00;99039.88;2080836;28;20227;-77
2022/01/01 02:03:13;;;;;;;57.50;36.53;;;;;;;8.87;100.00;99044.13;2086712;28;20219;-79
2022/01/01 02:04:15;;;;;;;55.72;36.10;;;;;;;8.86;100.00;99047.03;2086677;28;20218;-78
2022/01/01 02:05:16;;;;;;;52.40;35.75;;;;;;;8.81;100.00;99044.47;2086798;28;20650;-78
2022/01/01 02:06:18;;;;;;;56.50;36.83;;;;;;;8.78;100.00;99053.81;2086692;28;20226;-78
2022/01/01 02:07:20;;;;;;;53.42;36.20;;;;;;;8.78;100.00;99046.63;2078721;28;20580;-78
2022/01/01 02:08:22;;;;;;;51.15;35.55;;;;;;;8.78;100.00;99037.84;2086636;28;20226;-78
2022/01/01 02:09:26;;;;;;;53.35;37.42;;;;;;;8.79;100.00;99058.03;2094573;28;20652;-78
2022/01/01 02:10:30;;;;;;;57.35;36.63;;;;;;;8.84;100.00;99051.84;2086713;28;20231;-78
2022/01/01 02:11:32;;;;;;;56.50;37.30;;;;;;;8.83;100.00;99042.28;2086911;28;20233;-79
2022/01/01 02:12:33;;;;;;;54.95;36.47;;;;;;;8.82;100.00;99062.00;2086747;28;20574;-78
2022/01/01 02:13:46;;;;;;;55.57;37.97;;;;;;;8.78;100.00;99056.47;2086783;28;20418;-78
2022/01/01 02:15:09;;;;;;;57.40;37.22;;;;;;;8.86;100.00;99047.84;2086473;28;20637;-78
2022/01/01 02:16:28;;;;;;;54.97;36.72;;;;;;;8.78;100.00;99061.78;2086465;28;20222;-79
2022/01/01 02:17:31;;;;;;;55.92;37.63;;;;;;;8.84;100.00;99065.94;2086321;28;20276;-76
2022/01/01 02:18:31;;;;;;;56.85;38.08;;;;;;;8.86;100.00;99066.47;2086861;28;20230;-79
2022/01/01 02:19:48;;;;;;;56.30;37.80;;;;;;;8.84;100.00;99063.28;2086643;28;20219;-79
2022/01/01 02:20:50;;;;;;;61.30;39.38;;;;;;;8.86;100.00;99063.00;2080003;28;20222;-79
2022/01/01 02:21:53;;;;;;;57.95;38.03;;;;;;;8.86;100.00;99058.50;2086405;28;20226;-78
2022/01/01 02:23:00;;;;;;;60.03;38.72;;;;;;;8.83;100.00;99067.03;2086863;28;20241;-78
2022/01/01 02:24:02;;;;;;;58.53;39.20;;;;;;;8.82;100.00;99065.44;2086665;28;20253;-79
2022/01/01 02:25:05;;;;;;;62.03;39.42;;;;;;;8.83;100.00;99068.91;2078379;28;20223;-78
2022/01/01 02:26:09;;;;;;;61.67;40.55;;;;;;;8.83;100.00;99080.34;2078788;28;20254;-79
2022/01/01 02:27:11;;;;;;;66.72;40.17;;;;;;;8.77;100.00;99068.97;2086441;28;20302;-78
2022/01/01 02:28:13;;;;;;;64.00;39.30;;;;;;;8.81;100.00;99063.88;2087415;28;20628;-79
2022/01/01 02:29:14;;;;;;;68.13;40.58;;;;;;;8.87;100.00;99083.25;2086537;28;20677;-79
2022/01/01 02:30:17;;;;;;;60.93;40.33;;;;;;;8.82;100.00;99070.78;2086689;28;20611;-78
2022/01/01 02:31:19;;;;;;;64.00;40.55;;;;;;;8.80;100.00;99078.25;2087285;28;20227;-79
2022/01/01 02:32:20;;;;;;;64.07;39.77;;;;;;;8.85;100.00;99072.84;2086644;28;20219;-78
2022/01/01 02:33:21;;;;;;;67.93;41.00;;;;;;;8.79;100.00;99079.31;2086449;28;20227;-79
2022/01/01 02:34:23;;;;;;;66.23;41.53;;;;;;;8.84;100.00;99078.47;2086150;28;20230;-78
2022/01/01 02:35:24;;;;;;;63.15;39.92;;;;;;;8.82;100.00;99081.41;2086596;28;20229;-79
2022/01/01 02:36:35;;;;;;;60.03;39.73;;;;;;;8.86;100.00;99077.13;2086413;28;20306;-79
2022/01/01 02:37:39;;;;;;;59.53;39.88;;;;;;;8.81;100.00;99081.69;2086825;28;20222;-78
2022/01/01 02:38:40;;;;;;;67.20;40.78;;;;;;;8.81;100.00;99082.50;2086897;28;20718;-77
2022/01/01 02:39:41;;;;;;;68.23;42.47;;;;;;;8.85;100.00;99082.69;2086703;28;20645;-76
2022/01/01 02:40:43;;;;;;;65.97;40.97;;;;;;;8.84;100.00;99073.94;2086444;28;20231;-77
2022/01/01 02:41:47;;;;;;;69.65;42.88;;;;;;;8.82;100.00;99097.38;2086505;28;20595;-77
2022/01/01 02:42:47;;;;;;;66.70;43.38;;;;;;;8.81;100.00;99087.03;2086586;28;20244;-77
2022/01/01 02:43:50;;;;;;;65.63;46.20;;;;;;;8.81;100.00;99087.81;2086485;28;20229;-77
2022/01/01 02:44:54;;;;;;;71.50;44.08;;;;;;;8.78;100.00;99099.03;2086220;28;20226;-77
2022/01/01 02:45:54;;;;;;;68.38;45.08;;;;;;;8.81;100.00;99090.47;2087195;28;20227;-77
2022/01/01 02:46:57;;;;;;;72.97;45.00;;;;;;;8.81;100.00;99089.69;2086421;28;20309;-77
2022/01/01 02:47:59;;;;;;;68.70;43.92;;;;;;;8.84;100.00;99094.44;2086572;28;20376;-77
2022/01/01 02:48:59;;;;;;;67.68;43.10;;;;;;;8.85;100.00;99096.78;2086228;28;20223;-78
2022/01/01 02:50:01;;;;;;;64.83;43.83;;;;;;;8.86;100.00;99090.44;2086478;28;20226;-78
2022/01/01 02:51:05;;;;;;;63.05;42.63;;;;;;;8.88;100.00;99093.59;2087100;28;20570;-78
2022/01/01 02:52:10;;;;;;;66.93;43.00;;;;;;;8.81;100.00;99077.16;2087209;28;20222;-78
2022/01/01 02:53:11;;;;;;;69.22;44.63;;;;;;;8.81;100.00;99084.38;2086716;28;20552;-78
2022/01/01 02:54:13;;;;;;;66.82;43.13;;;;;;;8.81;100.00;99095.78;2086328;28;20704;-78
2022/01/01 02:55:15;;;;;;;73.15;44.88;;;;;;;8.82;100.00;99084.06;2086473;28;20265;-78
2022/01/01 02:56:15;;;;;;;66.32;43.50;;;;;;;8.83;100.00;99092.84;2086340;28;20214;-78
2022/01/01 02:57:17;;;;;;;68.27;43.57;;;;;;;8.85;100.00;99102.13;2086477;28;20227;-78
2022/01/01 02:58:18;;;;;;;68.13;44.03;;;;;;;8.80;100.00;99091.56;2087131;28;20221;-78
2022/01/01 02:59:20;;;;;;;66.60;42.40;;;;;;;8.81;100.00;99101.13;2086354;28;20235;-78
2022/01/01 03:00:21;;;;;;;69.80;45.70;;;;;;;8.83;100.00;99092.84;2086431;28;20472;-77
2022/01/01 03:01:23;;;;;;;66.90;43.33;;;;;;;8.84;100.00;99118.38;2086263;28;20226;-76
2022/01/01 03:02:24;;;;;;;68.60;43.47;;;;;;;8.86;100.00;99092.28;2086786;28;20689;-77
2022/01/01 03:03:25;;;;;;;69.13;44.67;;;;;;;8.87;100.00;99099.19;2086158;28;20266;-78
2022/01/01 03:04:26;;;;;;;62.78;41.42;;;;;;;8.87;100.00;99093.88;2086427;28;20812;-77
2022/01/01 03:05:30;;;;;;;72.67;43.07;;;;;;;8.83;100.00;99108.81;2087053;28;20625;-77
2022/01/01 03:06:32;;;;;;;71.95;42.47;;;;;;;8.79;100.00;99111.25;2086220;28;20219;-77
2022/01/01 03:07:35;;;;;;;65.70;43.20;;;;;;;8.81;100.00;99106.44;2086317;28;20226;-77
2022/01/01 03:08:37;;;;;;;69.50;43.20;;;;;;;8.80;100.00;99104.84;2086375;28;20226;-78
2022/01/01 03:09:39;;;;;;;72.78;43.47;;;;;;;8.78;100.00;99099.03;2077726;28;20234;-78
2022/01/01 03:10:39;;;;;;;69.57;42.95;;;;;;;8.78;100.00;99113.13;2078055;28;20254;-78
2022/01/01 03:11:41;;;;;;;68.63;42.57;;;;;;;8.77;100.00;99092.91;2078399;28;20239;-79
2022/01/01 03:12:42;;;;;;;68.25;42.08;;;;;;;8.76;100.00;99112.59;2086246;28;20240;-79
2022/01/01 03:13:45;;;;;;;62.37;42.77;;;;;;;8.80;100.00;99115.50;2086316;28;20281;-78
2022/01/01 03:14:45;;;;;;;64.20;42.03;;;;;;;8.83;100.00;99109.59;2086359;28;20223;-79
2022/01/01 03:15:47;;;;;;;69.73;42.43;;;;;;;8.79;100.00;99124.56;2086097;28;20270;-79
2022/01/01 03:16:48;;;;;;;64.20;41.72;;;;;;;8.83;100.00;99100.81;2086217;28;20567;-79
2022/01/01 03:17:49;;;;;;;64.87;42.60;;;;;;;8.84;100.00;99105.06;2086367;28;20249;-79
2022/01/01 03:18:52;;;;;;;61.72;40.88;;;;;;;8.82;100.00;99100.03;2094578;28;20214;-79
2022/01/01 03:19:55;;;;;;;68.22;41.58;;;;;;;8.87;100.00;99112.50;2093983;28;20254;-78
2022/01/01 03:20:55;;;;;;;64.13;41.35;;;;;;;8.87;100.00;99107.19;2086202;28;20597;-78
2022/01/01 03:21:57;;;;;;;62.60;42.53;;;;;;;8.84;100.00;99105.84;2086252;28;20257;-79
2022/01/01 03:22:59;;;;;;;61.58;42.22;;;;;;;8.81;100.00;99101.13;2086329;28;20230;-79
2022/01/01 03:24:01;;;;;;;58.35;41.03;;;;;;;8.85;100.00;99115.41;2086492;28;20218;-79
2022/01/01 03:25:02;;;;;;;60.50;41.53;;;;;;;8.84;100.00;99102.41;2078033;28;20227;-79
2022/01/01 03:26:06;;;;;;;64.55;41.10;;;;;;;8.84;100.00;99111.19;2078085;28;20306;-78
2022/01/01 03:27:07;;;;;;;61.40;40.83;;;;;;;8.81;100.00;99111.75;2086247;28;20229;-79
2022/01/01 03:28:09;;;;;;;64.63;40.90;;;;;;;8.82;100.00;99113.34;2086620;28;20747;-78
2022/01/01 03:29:10;;;;;;;58.70;40.28;;;;;;;8.82;100.00;99107.22;2087111;28;20234;-79
2022/01/01 03:30:12;;;;;;;64.33;42.10;;;;;;;8.81;100.00;99108.31;2086334;28;20302;-79
2022/01/01 03:31:14;;;;;;;59.90;41.83;;;;;;;8.85;100.00;99110.09;2086147;28;20229;-80
2022/01/01 03:32:15;;;;;;;60.67;39.97;;;;;;;8.89;100.00;99113.78;2086351;28;20223;-79
2022/01/01 03:33:18;;;;;;;58.78;40.65;;;;;;;8.84;100.00;99116.50;2086209;28;20336;-79
2022/01/01 03:34:21;;;;;;;58.28;40.90;;;;;;;8.87;100.00;99113.28;2086193;28;20225;-79
2022/01/01 03:35:21;;;;;;;59.92;39.42;;;;;;;8.85;100.00;99118.09;2086791;28;20222;-78
2022/01/01 03:36:23;;;;;;;57.20;38.93;;;;;;;8.85;100.00;99119.94;2087029;28;20309;-78
2022/01/01 03:37:24;;;;;;;55.72;38.53;;;;;;;8.86;100.00;99119.69;2086920;28;20230;-79
2022/01/01 03:38:27;;;;;;;59.10;39.90;;;;;;;8.90;100.00;99123.34;2094447;28;20228;-78
2022/01/01 03:39:28;;;;;;;56.22;39.00;;;;;;;8.88;100.00;99119.41;2094090;28;20719;-78
2022/01/01 03:40:31;;;;;;;55.88;38.92;;;;;;;8.91;100.00;99124.94;2086116;28;20227;-79
2022/01/01 03:41:32;;;;;;;55.90;38.17;;;;;;;8.92;100.00;99139.03;2086257;28;20581;-78
2022/01/01 03:42:33;;;;;;;50.07;37.60;;;;;;;8.90;100.00;99133.22;2086923;28;20250;-78
2022/01/01 03:43:35;;;;;;;52.75;37.55;;;;;;;8.90;100.00;99118.03;2086040;28;20222;-79
2022/01/01 03:44:36;;;;;;;54.30;37.17;;;;;;;8.91;100.00;99127.59;2086357;28;20265;-79
2022/01/01 03:45:37;;;;;;;52.47;37.80;;;;;;;8.93;100.00;99124.66;2086193;28;20309;-78
2022/01/01 03:46:40;;;;;;;52.95;37.75;;;;;;;8.93;100.00;99130.75;2077526;28;20230;-78
2022/01/01 03:47:41;;;;;;;53.92;37.10;;;;;;;8.93;100.00;99127.31;2078026;28;20272;-78
2022/01/01 03:48:43;;;;;;;52.77;37.10;;;;;;;8.93;100.00;99129.97;2077864;28;20243;-78
2022/01/01 03:49:43;;;;;;;54.85;36.40;;;;;;;8.92;100.00;99131.84;2086213;28;20296;-78
2022/01/01 03:50:45;;;;;;;51.23;35.20;;;;;;;8.91;100.00;99130.25;2087073;28;20305;-79
2022/01/01 03:51:46;;;;;;;48.83;36.00;;;;;;;8.94;100.00;99136.88;2087072;28;20220;-78
2022/01/01 03:52:47;;;;;;;51.40;36.53;;;;;;;8.96;100.00;99150.72;2087030;28;20255;-78
2022/01/01 03:53:50;;;;;;;51.38;35.85;;;;;;;8.97;100.00;99142.44;2086273;28;20706;-78
2022/01/01 03:54:54;;;;;;;48.88;35.40;;;;;;;8.99;100.00;99150.94;2086131;28;20653;-78
2022/01/01 03:55:57;;;;;;;46.08;35.67;;;;;;;9.03;100.00;99141.31;2085841;28;20256;-79
2022/01/01 03:56:58;;;;;;;50.55;35.00;;;;;;;9.05;100.00;99151.69;2077894;28;20735;-78
2022/01/01 03:57:59;;;;;;;51.03;35.13;;;;;;;9.05;100.00;99151.69;2077993;28;20595;-78
2022/01/01 03:59:00;;;;;;;46.20;33.15;;;;;;;9.05;100.00;99159.66;2086320;28;20219;-78
2022/01/01 04:00:02;;;;;;;48.67;34.27;;;;;;;9.04;100.00;99153.53;2086926;28;20263;-78
2022/01/01 04:01:03;;;;;;;44.60;34.47;;;;;;;9.06;100.00;99150.59;2087020;28;20703;-78
2022/01/01 04:02:04;;;;;;;41.53;33.67;;;;;;;9.11;100.00;99157.72;2087041;28;20672;-79
2022/01/01 04:03:07;;;;;;;39.47;33.10;;;;;;;9.13;100.00;99156.38;2086955;28;20569;-78
2022/01/01 04:04:08;;;;;;;46.22;34.13;;;;;;;9.10;100.00;99162.25;2085756;28;20230;-78
2022/01/01 04:05:11;;;;;;;40.97;32.73;;;;;;;9.12;100.00;99160.13;2086145;28;20368;-78
2022/01/01 04:06:14;;;;;;;40.72;32.03;;;;;;;9.12;100.00;99153.97;2086861;28;20337;-78
2022/01/01 04:07:14;;;;;;;44.00;32.10;;;;;;;9.06;100.00;99151.38;2086903;28;20223;-78
2022/01/01 04:08:16;;;;;;;41.37;31.43;;;;;;;9.10;100.00;99158.78;2086916;28;20222;-78
2022/01/01 04:09:19;;;;;;;40.97;32.35;;;;;;;9.10;100.00;99156.94;2087091;28;20606;-78
2022/01/01 04:10:20;;;;;;;40.97;32.42;;;;;;;9.11;100.00;99160.38;2086200;28;20693;-78
2022/01/01 04:11:21;;;;;;;43.22;32.03;;;;;;;9.09;100.00;99152.69;2077636;28;20705;-78
2022/01/01 04:12:23;;;;;;;40.37;32.33;;;;;;;9.11;100.00;99157.72;2085661;28;20670;-77
2022/01/01 04:13:27;;;;;;;40.70;32.33;;;;;;;9.09;100.00;99154.56;2087428;28;20777;-78
2022/01/01 04:14:27;;;;;;;44.67;33.05;;;;;;;9.14;100.00;99157.16;2087083;28;20241;-78
2022/01/01 04:15:30;;;;;;;42.93;32.50;;;;;;;9.11;100.00;99157.72;2088310;28;20229;-78
2022/01/01 04:16:31;;;;;;;43.42;32.20;;;;;;;9.12;100.00;99159.31;2087614;28;20223;-78
2022/01/01 04:17:36;;;;;;;40.73;32.50;;;;;;;9.09;100.00;99159.88;2087869;28;20215;-78
2022/01/01 04:18:40;;;;;;;40.50;32.65;;;;;;;9.07;100.00;99158.28;2088217;28;20226;-77
2022/01/01 04:19:41;;;;;;;49.05;35.55;;;;;;;9.06;100.00;99159.38;2088432;28;20231;-78
2022/01/01 04:20:44;;;;;;;44.72;34.25;;;;;;;9.06;100.00;99163.91;2088576;28;20226;-78
2022/01/01 04:21:47;;;;;;;44.75;33.90;;;;;;;9.07;100.00;99170.81;2088345;28;20222;-78
2022/01/01 04:22:49;;;;;;;44.08;33.92;;;;;;;9.07;100.00;99158.28;2088422;28;20222;-78
2022/01/01 04:23:49;;;;;;;42.67;34.15;;;;;;;9.06;100.00;99156.72;2088343;28;20227;-78
2022/01/01 04:24:52;;;;;;;40.30;34.00;;;;;;;9.07;100.00;99162.81;2088488;28;20752;-78
2022/01/01 04:25:53;;;;;;;44.45;34.60;;;;;;;9.07;100.00;99162.81;2087167;28;20723;-78
2022/01/01 04:26:57;;;;;;;41.27;33.73;;;;;;;9.04;100.00;99158.88;2079303;28;20594;-78
2022/01/01 04:27:58;;;;;;;44.33;33.80;;;;;;;9.04;100.00;99161.53;2087481;28;20751;-78
2022/01/01 04:28:59;;;;;;;45.03;33.67;;;;;;;9.07;100.00;99158.28;2079328;28;20615;-78
2022/01/01 04:30:00;;;;;;;42.03;33.22;;;;;;;9.01;100.00;99164.75;2079423;28;20799;-78
2022/01/01 04:31:02;;;;;;;43.50;33.40;;;;;;;9.06;100.00;99162.03;2087503;28;20738;-78
2022/01/01 04:32:04;;;;;;;42.22;31.80;;;;;;;9.06;100.00;99154.06;2088386;28;20575;-78
2022/01/01 04:33:07;;;;;;;44.47;32.63;;;;;;;9.02;100.00;99155.69;2088351;28;20567;-78
2022/01/01 04:34:11;;;;;;;42.75;31.77;;;;;;;9.07;100.00;99157.50;2095412;28;20262;-78
2022/01/01 04:35:14;;;;;;;37.35;30.13;;;;;;;9.05;100.00;99157.78;2087566;28;20226;-77
2022/01/01 04:36:15;;;;;;;36.10;31.13;;;;;;;9.04;100.00;99161.53;2087660;28;20294;-78
2022/01/01 04:37:18;;;;;;;36.90;31.33;;;;;;;9.03;100.00;99162.59;2088470;28;20230;-78
2022/01/01 04:38:35;;;;;;;37.20;31.92;;;;;;;9.04;100.00;99164.19;2087635;28;20226;-78
2022/01/01 04:39:36;;;;;;;39.13;33.15;;;;;;;9.05;100.00;99171.09;2087455;28;20222;-78
2022/01/01 04:40:40;;;;;;;40.35;32.00;;;;;;;9.05;100.00;99179.09;2087130;28;20222;-78
2022/01/01 04:41:41;;;;;;;38.03;32.42;;;;;;;9.05;100.00;99179.09;2079342;28;20223;-78
2022/01/01 04:42:44;;;;;;;37.38;31.30;;;;;;;9.04;100.00;99171.38;2087687;28;20223;-78
2022/01/01 04:43:46;;;;;;;37.22;30.50;;;;;;;9.10;100.00;99182.75;2088185;28;20222;-78
2022/01/01 04:44:47;;;;;;;40.85;31.40;;;;;;;9.13;100.00;99180.34;2087716;28;20732;-78
2022/01/01 04:45:48;;;;;;;38.63;31.10;;;;;;;9.12;100.00;99180.59;2087337;28;20223;-78
2022/01/01 04:46:50;;;;;;;42.20;31.17;;;;;;;9.10;100.00;99177.44;2070978;28;20251;-78